createdAt,value
2018-04-07T00:01:15.687Z,5.77
2018-04-07T00:03:43.243Z,7.27
2018-04-07T00:06:10.788Z,5.27
2018-04-07T00:08:38.326Z,6.25
2018-04-07T00:11:05.930Z,6.80
2018-04-07T00:13:33.494Z,5.63
2018-04-07T00:16:01.070Z,6.30
2018-04-07T00:18:29.570Z,6.30
2018-04-07T00:20:57.910Z,6.00
2018-04-07T00:23:26.953Z,6.60
2018-04-07T00:25:54.503Z,6.15
2018-04-07T00:28:22.045Z,6.83
2018-04-07T00:30:49.596Z,5.62
2018-04-07T00:33:17.110Z,6.60
2018-04-07T00:35:44.667Z,6.37
2018-04-07T00:38:12.215Z,5.57
2018-04-07T00:40:39.767Z,6.43
2018-04-07T00:43:07.314Z,6.33
2018-04-07T00:45:34.853Z,5.20
2018-04-07T00:48:02.403Z,6.07
2018-04-07T00:50:29.936Z,6.30
2018-04-07T00:52:58.255Z,6.70
2018-04-07T00:55:25.794Z,5.27
2018-04-07T00:57:53.354Z,6.33
2018-04-07T01:00:21.677Z,5.93
2018-04-07T01:02:49.223Z,5.73
2018-04-07T01:05:16.755Z,6.00
2018-04-07T01:07:44.296Z,5.87
2018-04-07T01:10:11.824Z,4.80
2018-04-07T01:12:39.527Z,6.00
2018-04-07T01:15:07.045Z,5.47
2018-04-07T01:17:34.593Z,6.60
2018-04-07T01:20:02.122Z,5.83
2018-04-07T01:22:30.353Z,5.40
2018-04-07T01:24:57.880Z,4.97
2018-04-07T01:27:26.188Z,5.37
2018-04-07T01:29:53.717Z,5.63
2018-04-07T01:32:21.284Z,5.57
2018-04-07T01:34:48.811Z,10.47
2018-04-07T01:37:16.344Z,5.73
2018-04-07T01:39:43.865Z,5.80
2018-04-07T01:42:12.232Z,5.43
2018-04-07T01:44:40.517Z,4.90
2018-04-07T01:47:08.181Z,6.00
2018-04-07T01:49:35.705Z,5.50
2018-04-07T01:52:03.240Z,4.75
2018-04-07T01:54:31.353Z,5.50
2018-04-07T01:56:58.894Z,5.80
2018-04-07T01:59:26.455Z,5.75
2018-04-07T02:01:53.982Z,5.60
2018-04-07T02:04:21.607Z,5.53
2018-04-07T02:06:49.166Z,6.20
2018-04-07T02:09:16.797Z,6.22
2018-04-07T02:11:44.313Z,6.00
2018-04-07T02:14:11.853Z,6.00
2018-04-07T02:16:39.368Z,5.60
2018-04-07T02:19:07.793Z,5.70
2018-04-07T02:21:35.333Z,5.80
2018-04-07T02:24:02.991Z,5.53
2018-04-07T02:26:30.503Z,5.70
2018-04-07T02:28:58.050Z,5.47
2018-04-07T02:31:25.574Z,5.70
2018-04-07T02:33:53.113Z,5.70
2018-04-07T02:36:21.522Z,6.10
2018-04-07T02:38:49.061Z,6.67
2018-04-07T02:41:16.600Z,6.15
2018-04-07T02:43:44.211Z,6.50
2018-04-07T02:46:11.732Z,6.10
2018-04-07T02:48:39.272Z,6.33
2018-04-07T02:51:06.894Z,5.90
2018-04-07T02:53:34.478Z,7.00
2018-04-07T02:56:02.190Z,5.82
2018-04-07T02:58:29.737Z,6.07
2018-04-07T03:00:57.265Z,5.80
2018-04-07T03:03:24.817Z,6.40
2018-04-07T03:05:53.326Z,6.10
2018-04-07T03:08:21.639Z,6.53
2018-04-07T03:10:49.155Z,7.00
2018-04-07T03:13:17.436Z,6.97
2018-04-07T03:15:44.962Z,7.57
2018-04-07T03:18:12.496Z,6.62
2018-04-07T03:20:41.009Z,6.63
2018-04-07T03:23:08.531Z,6.53
2018-04-07T03:25:36.066Z,6.40
2018-04-07T03:28:03.641Z,6.23
2018-04-07T03:30:31.183Z,6.60
2018-04-07T03:32:58.703Z,6.90
2018-04-07T03:35:26.266Z,7.13
2018-04-07T03:37:53.791Z,7.30
2018-04-07T03:40:21.352Z,6.67
2018-04-07T03:42:48.893Z,6.60
2018-04-07T03:45:16.453Z,6.00
2018-04-07T03:47:43.974Z,7.43
2018-04-07T03:50:11.651Z,6.47
2018-04-07T03:52:39.180Z,6.77
2018-04-07T03:55:06.739Z,7.10
2018-04-07T03:57:35.382Z,6.90
2018-04-07T04:00:02.926Z,8.20
2018-04-07T04:02:30.448Z,7.43
2018-04-07T04:04:57.980Z,7.53
2018-04-07T04:07:26.290Z,6.90
2018-04-07T04:09:53.853Z,6.97
2018-04-07T04:12:21.383Z,7.00
2018-04-07T04:14:48.922Z,6.80
2018-04-07T04:17:16.445Z,6.63
2018-04-07T04:19:43.983Z,6.90
2018-04-07T04:22:11.513Z,7.00
2018-04-07T04:24:39.145Z,7.00
2018-04-07T04:27:06.648Z,6.60
2018-04-07T04:29:35.101Z,7.75
2018-04-07T04:32:03.391Z,6.43
2018-04-07T04:34:31.071Z,7.43
2018-04-07T04:36:59.387Z,7.97
2018-04-07T04:39:26.907Z,6.40
2018-04-07T04:41:54.449Z,7.70
2018-04-07T04:44:21.970Z,7.80
2018-04-07T04:46:50.277Z,6.90
2018-04-07T04:49:17.862Z,6.93
2018-04-07T04:51:45.406Z,8.00
2018-04-07T04:54:12.933Z,7.07
2018-04-07T04:56:40.661Z,7.20
2018-04-07T04:59:08.201Z,10.67
2018-04-07T05:01:36.751Z,8.02
2018-04-07T05:04:04.269Z,7.73
2018-04-07T05:06:32.581Z,8.10
2018-04-07T05:09:00.126Z,8.00
2018-04-07T05:11:27.688Z,8.13
2018-04-07T05:13:56.054Z,7.70
2018-04-07T05:16:23.639Z,8.07
2018-04-07T05:18:51.222Z,7.50
2018-04-07T05:21:18.761Z,7.80
2018-04-07T05:23:46.413Z,8.37
2018-04-07T05:26:14.060Z,7.50
2018-04-07T05:28:41.586Z,8.00
2018-04-07T05:31:09.309Z,8.00
2018-04-07T05:33:36.889Z,7.40
2018-04-07T05:36:04.545Z,7.83
2018-04-07T05:38:32.061Z,8.13
2018-04-07T05:40:59.741Z,8.33
2018-04-07T05:43:27.252Z,8.43
2018-04-07T05:45:54.846Z,8.30
2018-04-07T05:48:22.470Z,8.20
2018-04-07T05:50:49.996Z,8.77
2018-04-07T05:53:17.524Z,7.97
2018-04-07T05:55:45.049Z,7.77
2018-04-07T05:58:13.405Z,8.30
2018-04-07T06:00:41.725Z,8.50
2018-04-07T06:03:09.272Z,7.77
2018-04-07T06:05:37.011Z,7.82
2018-04-07T06:08:04.563Z,8.00
2018-04-07T06:10:32.104Z,7.87
2018-04-07T06:12:59.645Z,7.80
2018-04-07T06:15:27.279Z,8.13
2018-04-07T06:17:54.816Z,8.03
2018-04-07T06:20:22.343Z,7.60
2018-04-07T06:22:50.714Z,8.53
2018-04-07T06:25:19.713Z,7.70
2018-04-07T06:27:47.480Z,8.00
2018-04-07T06:30:15.229Z,8.00
2018-04-07T06:32:42.761Z,7.60
2018-04-07T06:35:10.281Z,8.00
2018-04-07T06:37:38.174Z,8.02
2018-04-07T06:40:05.705Z,7.87
2018-04-07T06:42:33.285Z,8.07
2018-04-07T06:45:00.797Z,7.93
2018-04-07T06:47:28.453Z,7.80
2018-04-07T06:49:55.996Z,8.03
2018-04-07T06:52:23.542Z,7.50
2018-04-07T06:54:51.069Z,7.03
2018-04-07T06:57:18.590Z,7.90
2018-04-07T06:59:46.130Z,7.30
2018-04-07T07:02:13.657Z,7.83
2018-04-07T07:04:41.953Z,8.17
2018-04-07T07:07:09.478Z,8.50
2018-04-07T07:09:37.056Z,8.17
2018-04-07T07:12:04.598Z,7.90
2018-04-07T07:14:32.133Z,7.73
2018-04-07T07:16:59.647Z,7.40
2018-04-07T07:19:27.957Z,7.73
2018-04-07T07:21:55.529Z,7.60
2018-04-07T07:24:23.072Z,7.67
2018-04-07T07:26:50.612Z,6.77
2018-04-07T07:29:18.176Z,7.57
2018-04-07T07:31:46.477Z,7.73
2018-04-07T07:34:14.027Z,7.50
2018-04-07T07:36:41.551Z,7.20
2018-04-07T07:39:09.129Z,7.43
2018-04-07T07:41:36.641Z,7.07
2018-04-07T07:44:04.322Z,7.33
2018-04-07T07:46:31.842Z,7.50
2018-04-07T07:48:59.393Z,7.80
2018-04-07T07:51:26.915Z,6.30
2018-04-07T07:53:55.214Z,7.90
2018-04-07T07:56:22.746Z,7.63
2018-04-07T07:58:50.322Z,6.90
2018-04-07T08:01:17.946Z,7.27
2018-04-07T08:03:45.505Z,7.53
2018-04-07T08:06:13.140Z,7.27
2018-04-07T08:08:40.662Z,7.90
2018-04-07T08:11:08.206Z,8.13
2018-04-07T08:13:35.722Z,7.47
2018-04-07T08:16:04.044Z,6.60
2018-04-07T08:18:31.556Z,7.50
2018-04-07T08:20:59.106Z,7.17
2018-04-07T08:23:26.652Z,7.60
2018-04-07T08:25:54.215Z,7.20
2018-04-07T08:28:21.764Z,7.50
2018-04-07T08:30:49.407Z,7.20
2018-04-07T08:33:16.943Z,7.60
2018-04-07T08:35:44.500Z,7.90
2018-04-07T08:38:12.038Z,7.57
2018-04-07T08:40:39.576Z,7.03
2018-04-07T08:43:07.097Z,7.80
2018-04-07T08:45:34.631Z,6.87
2018-04-07T08:48:03.032Z,6.60
2018-04-07T08:50:30.604Z,8.63
2018-04-07T08:52:58.899Z,7.20
2018-04-07T08:55:27.209Z,7.80
2018-04-07T08:57:54.825Z,7.30
2018-04-07T09:00:22.353Z,7.70
2018-04-07T09:02:50.640Z,7.33
2018-04-07T09:05:18.213Z,7.13
2018-04-07T09:07:45.753Z,7.30
2018-04-07T09:10:13.301Z,7.80
2018-04-07T09:12:41.752Z,7.00
2018-04-07T09:15:09.448Z,7.83
2018-04-07T09:17:37.749Z,10.60
2018-04-07T09:20:05.285Z,8.13
2018-04-07T09:22:32.823Z,7.53
2018-04-07T09:25:00.370Z,7.47
2018-04-07T09:27:27.893Z,8.37
2018-04-07T09:29:56.304Z,7.53
2018-04-07T09:32:23.841Z,7.43
2018-04-07T09:34:51.434Z,7.83
2018-04-07T09:37:18.977Z,8.40
2018-04-07T09:39:46.491Z,7.03
2018-04-07T09:42:14.049Z,7.63
2018-04-07T09:44:41.572Z,7.83
2018-04-07T09:47:09.096Z,7.60
2018-04-07T09:49:36.633Z,7.97
2018-04-07T09:52:04.198Z,6.90
2018-04-07T09:54:31.753Z,8.20
2018-04-07T09:56:59.345Z,7.87
2018-04-07T09:59:27.637Z,7.70
2018-04-07T10:01:59.128Z,7.77
2018-04-07T10:04:26.665Z,7.13
2018-04-07T10:06:54.215Z,6.17
2018-04-07T10:09:21.764Z,6.80
2018-04-07T10:11:50.081Z,8.10
2018-04-07T10:14:17.623Z,8.30
2018-04-07T10:16:45.166Z,7.20
2018-04-07T10:19:12.690Z,7.80
2018-04-07T10:21:40.235Z,8.80
2018-04-07T10:24:07.827Z,6.67
2018-04-07T10:26:35.478Z,7.40
2018-04-07T10:29:03.023Z,7.37
2018-04-07T10:31:30.649Z,7.43
2018-04-07T10:33:58.280Z,7.63
2018-04-07T10:36:26.954Z,7.90
2018-04-07T10:38:54.745Z,8.10
2018-04-07T10:41:22.301Z,7.10
2018-04-07T10:43:50.688Z,8.20
2018-04-07T10:46:18.252Z,8.50
2018-04-07T10:48:45.812Z,7.40
2018-04-07T10:51:13.368Z,7.33
2018-04-07T10:53:41.002Z,8.47
2018-04-07T10:56:08.571Z,7.73
2018-04-07T10:58:36.099Z,7.50
2018-04-07T11:01:03.652Z,8.30
2018-04-07T11:03:31.962Z,8.80
2018-04-07T11:05:59.538Z,8.33
2018-04-07T11:08:27.073Z,9.67
2018-04-07T11:10:54.614Z,7.87
2018-04-07T11:13:22.203Z,8.10
2018-04-07T11:15:49.928Z,7.63
2018-04-07T11:18:17.475Z,10.17
2018-04-07T11:20:46.024Z,7.20
2018-04-07T11:23:13.619Z,8.37
2018-04-07T11:25:41.144Z,9.80
2018-04-07T11:28:08.680Z,7.93
2018-04-07T11:30:36.857Z,8.83
2018-04-07T11:33:04.496Z,7.20
2018-04-07T11:35:32.015Z,8.63
2018-04-07T11:37:59.548Z,9.50
2018-04-07T11:40:27.113Z,8.30
2018-04-07T11:42:54.639Z,7.50
2018-04-07T11:45:22.160Z,8.77
2018-04-07T11:47:50.474Z,8.50
2018-04-07T11:50:18.048Z,8.10
2018-04-07T11:52:46.757Z,7.95
2018-04-07T11:55:14.971Z,8.20
2018-04-07T11:57:44.937Z,6.97
2018-04-07T12:00:12.485Z,6.93
2018-04-07T12:02:40.184Z,8.57
2018-04-07T12:05:07.706Z,9.03
2018-04-07T12:07:35.835Z,7.67
2018-04-07T12:10:03.689Z,7.90
2018-04-07T12:12:31.234Z,8.13
2018-04-07T12:14:58.782Z,8.73
2018-04-07T12:17:26.341Z,8.00
2018-04-07T12:19:53.957Z,7.40
2018-04-07T12:22:21.533Z,6.80
2018-04-07T12:24:49.849Z,6.80
2018-04-07T12:27:17.454Z,6.40
2018-04-07T12:29:44.980Z,5.73
2018-04-07T12:32:12.534Z,7.03
2018-04-07T12:34:40.377Z,6.82
2018-04-07T12:37:08.244Z,8.90
2018-04-07T12:39:36.564Z,6.93
2018-04-07T12:42:04.119Z,6.23
2018-04-07T12:44:31.641Z,7.90
2018-04-07T12:46:59.211Z,6.53
2018-04-07T12:49:26.786Z,6.23
2018-04-07T12:51:54.401Z,7.03
2018-04-07T12:54:21.915Z,7.10
2018-04-07T12:56:49.457Z,7.00
2018-04-07T12:59:16.975Z,7.80
2018-04-07T13:01:45.330Z,7.80
2018-04-07T13:04:13.682Z,6.40
2018-04-07T13:06:41.231Z,6.63
2018-04-07T13:09:08.959Z,6.43
2018-04-07T13:11:36.596Z,6.67
2018-04-07T13:14:04.169Z,5.27
2018-04-07T13:16:31.750Z,6.20
2018-04-07T13:18:59.467Z,6.47
2018-04-07T13:21:27.831Z,8.00
2018-04-07T13:23:55.807Z,7.43
2018-04-07T13:26:23.504Z,5.90
2018-04-07T13:28:51.062Z,6.43
2018-04-07T13:31:18.685Z,6.45
2018-04-07T13:33:46.240Z,6.20
2018-04-07T13:36:13.775Z,5.90
2018-04-07T13:38:41.468Z,5.90
2018-04-07T13:41:10.008Z,6.13
2018-04-07T13:43:37.914Z,6.67
2018-04-07T13:46:05.711Z,6.80
2018-04-07T13:48:33.298Z,5.67
2018-04-07T13:51:02.057Z,6.20
2018-04-07T13:53:30.397Z,5.33
2018-04-07T13:55:57.926Z,6.47
2018-04-07T13:58:25.473Z,7.07
2018-04-07T14:00:53.002Z,6.33
2018-04-07T14:03:20.543Z,7.20
2018-04-07T14:05:49.180Z,5.87
2018-04-07T14:08:16.798Z,5.57
2018-04-07T14:10:44.525Z,5.10
2018-04-07T14:13:12.840Z,5.23
2018-04-07T14:15:40.403Z,6.13
2018-04-07T14:18:07.983Z,6.53
2018-04-07T14:20:35.833Z,4.80
2018-04-07T14:23:03.417Z,5.37
2018-04-07T14:25:31.733Z,5.70
2018-04-07T14:27:59.293Z,6.70
2018-04-07T14:30:27.649Z,5.80
2018-04-07T14:32:55.220Z,6.83
2018-04-07T14:35:22.899Z,5.00
2018-04-07T14:37:50.509Z,5.80
2018-04-07T14:40:18.089Z,5.37
2018-04-07T14:42:45.675Z,4.53
2018-04-07T14:45:13.208Z,5.20
2018-04-07T14:47:40.806Z,5.07
2018-04-07T14:50:08.538Z,5.97
2018-04-07T14:52:36.361Z,6.90
2018-04-07T14:55:03.904Z,6.75
2018-04-07T14:57:31.431Z,5.93
2018-04-07T14:59:58.975Z,5.87
2018-04-07T15:02:26.678Z,5.50
2018-04-07T15:04:55.015Z,5.77
2018-04-07T15:07:22.530Z,5.73
2018-04-07T15:09:50.520Z,5.40
2018-04-07T15:12:18.464Z,5.90
2018-04-07T15:14:47.169Z,5.70
2018-04-07T15:17:14.736Z,5.07
2018-04-07T15:19:43.107Z,6.00
2018-04-07T15:22:11.384Z,5.70
2018-04-07T15:24:38.964Z,5.17
2018-04-07T15:27:06.571Z,4.57
2018-04-07T15:29:34.207Z,6.27
2018-04-07T15:32:01.767Z,5.13
2018-04-07T15:34:29.445Z,4.93
2018-04-07T15:36:57.793Z,5.30
2018-04-07T15:39:25.334Z,5.30
2018-04-07T15:41:52.937Z,5.40
2018-04-07T15:44:20.538Z,5.00
2018-04-07T15:46:48.093Z,5.67
2018-04-07T15:49:15.679Z,4.80
2018-04-07T15:51:43.269Z,5.13
2018-04-07T15:54:11.007Z,6.43
2018-04-07T15:56:38.990Z,6.27
2018-04-07T15:59:06.547Z,5.00
2018-04-07T16:01:34.117Z,4.97
2018-04-07T16:04:01.755Z,5.43
2018-04-07T16:06:29.484Z,5.27
2018-04-07T16:08:57.022Z,5.80
2018-04-07T16:11:24.658Z,5.80
2018-04-07T16:13:53.115Z,5.20
2018-04-07T16:16:20.676Z,5.87
2018-04-07T16:18:48.232Z,6.60
2018-04-07T16:21:16.603Z,5.50
2018-04-07T16:23:44.900Z,5.40
2018-04-07T16:26:12.447Z,5.40
2018-04-07T16:28:40.197Z,5.17
2018-04-07T16:31:07.869Z,6.17
2018-04-07T16:33:35.477Z,5.80
2018-04-07T16:36:03.151Z,7.20
2018-04-07T16:38:30.699Z,6.50
2018-04-07T16:40:58.271Z,5.93
2018-04-07T16:43:25.809Z,5.80
2018-04-07T16:45:53.351Z,5.50
2018-04-07T16:48:20.894Z,6.60
2018-04-07T16:50:49.233Z,6.10
2018-04-07T16:53:16.784Z,6.70
2018-04-07T16:55:44.339Z,7.40
2018-04-07T16:58:11.966Z,7.70
2018-04-07T17:00:40.481Z,8.63
2018-04-07T17:03:08.823Z,7.83
2018-04-07T17:05:36.502Z,6.50
2018-04-07T17:08:04.866Z,6.90
2018-04-07T17:10:33.153Z,7.00
2018-04-07T17:13:00.726Z,6.80
2018-04-07T17:15:28.477Z,6.80
2018-04-07T17:17:56.072Z,6.90
2018-04-07T17:20:24.367Z,8.40
2018-04-07T17:22:51.936Z,7.70
2018-04-07T17:25:19.564Z,7.80
2018-04-07T17:27:47.163Z,7.43
2018-04-07T17:30:15.474Z,8.37
2018-04-07T17:32:43.053Z,7.20
2018-04-07T17:35:10.598Z,8.47
2018-04-07T17:37:38.173Z,8.73
2018-04-07T17:40:05.750Z,11.10
2018-04-07T17:42:33.991Z,9.13
2018-04-07T17:45:01.518Z,9.57
2018-04-07T17:47:29.832Z,9.73
2018-04-07T17:49:57.380Z,10.63
2018-04-07T17:52:24.926Z,11.90
2018-04-07T17:54:52.465Z,10.70
2018-04-07T17:57:20.037Z,10.50
2018-04-07T17:59:47.587Z,11.27
2018-04-07T18:02:16.321Z,12.40
2018-04-07T18:04:43.858Z,14.47
2018-04-07T18:07:11.426Z,12.20
2018-04-07T18:09:38.981Z,12.50
2018-04-07T18:12:06.566Z,11.13
2018-04-07T18:14:34.103Z,12.10
2018-04-07T18:17:01.640Z,11.00
2018-04-07T18:19:29.953Z,11.70
2018-04-07T18:21:57.569Z,12.70
2018-04-07T18:24:25.159Z,13.77
2018-04-07T18:26:53.091Z,13.13
2018-04-07T18:29:20.685Z,13.67
2018-04-07T18:31:48.296Z,12.33
2018-04-07T18:34:16.350Z,11.07
2018-04-07T18:36:43.963Z,12.80
2018-04-07T18:39:11.586Z,13.47
2018-04-07T18:41:39.496Z,14.03
2018-04-07T18:44:07.159Z,13.67
2018-04-07T18:46:35.505Z,14.00
2018-04-07T18:49:03.049Z,12.00
2018-04-07T18:51:30.685Z,12.63
2018-04-07T18:53:58.652Z,12.53
2018-04-07T18:56:26.196Z,13.27
2018-04-07T18:58:53.772Z,12.23
2018-04-07T19:01:22.142Z,12.20
2018-04-07T19:03:49.716Z,12.23
2018-04-07T19:06:17.286Z,12.83
2018-04-07T19:08:44.885Z,12.63
2018-04-07T19:11:12.433Z,12.68
2018-04-07T19:13:40.119Z,14.03
2018-04-07T19:16:07.846Z,14.23
2018-04-07T19:18:35.440Z,14.30
2018-04-07T19:21:03.955Z,13.13
2018-04-07T19:23:31.501Z,13.20
2018-04-07T19:25:59.440Z,13.40
2018-04-07T19:28:26.985Z,13.83
2018-04-07T19:30:54.587Z,14.98
2018-04-07T19:33:22.168Z,16.23
2018-04-07T19:35:50.478Z,14.70
2018-04-07T19:38:18.105Z,15.83
2018-04-07T19:40:45.846Z,17.43
2018-04-07T19:43:13.407Z,14.63
2018-04-07T19:45:41.323Z,16.27
2018-04-07T19:48:08.889Z,16.93
2018-04-07T19:50:36.441Z,18.40
2018-04-07T19:53:04.016Z,15.27
2018-04-07T19:55:31.962Z,15.67
2018-04-07T19:57:59.695Z,17.50
2018-04-07T20:00:27.290Z,16.73
2018-04-07T20:02:55.668Z,16.30
2018-04-07T20:05:23.272Z,16.37
2018-04-07T20:07:50.804Z,17.00
2018-04-07T20:10:18.449Z,17.00
2018-04-07T20:12:45.998Z,15.27
2018-04-07T20:15:13.562Z,16.17
2018-04-07T20:17:41.102Z,16.30
2018-04-07T20:20:08.661Z,17.70
2018-04-07T20:22:36.253Z,16.40
2018-04-07T20:25:04.136Z,15.90
2018-04-07T20:27:31.668Z,17.83
2018-04-07T20:29:59.374Z,17.60
2018-04-07T20:32:26.943Z,16.07
2018-04-07T20:34:54.471Z,18.37
2018-04-07T20:37:22.013Z,18.10
2018-04-07T20:39:49.802Z,16.80
2018-04-07T20:42:27.153Z,17.70
2018-04-07T20:44:54.821Z,16.50
2018-04-07T20:47:23.273Z,16.77
2018-04-07T20:49:50.868Z,17.57
2018-04-07T20:52:19.219Z,17.03
2018-04-07T20:54:47.767Z,17.90
2018-04-07T20:57:15.344Z,17.52
2018-04-07T20:59:43.974Z,17.50
2018-04-07T21:02:13.695Z,19.00
2018-04-07T21:04:41.387Z,18.13
2018-04-07T21:07:09.408Z,17.97
2018-04-07T21:09:37.371Z,17.65
2018-04-07T21:12:06.057Z,18.00
2018-04-07T21:14:34.445Z,18.23
2018-04-07T21:17:02.256Z,18.67
2018-04-07T21:19:30.089Z,18.73
2018-04-07T21:21:57.733Z,19.60
2018-04-07T21:24:25.280Z,18.07
2018-04-07T21:26:53.830Z,20.50
2018-04-07T21:29:21.453Z,19.30
2018-04-07T21:31:49.084Z,18.50
2018-04-07T21:34:16.764Z,18.40
2018-04-07T21:36:44.304Z,19.20
2018-04-07T21:39:11.844Z,19.17
2018-04-07T21:41:39.477Z,19.83
2018-04-07T21:44:07.018Z,19.13
2018-04-07T21:46:34.574Z,19.77
2018-04-07T21:49:02.140Z,17.70
2018-04-07T21:51:29.836Z,17.70
2018-04-07T21:53:57.674Z,18.90
2018-04-07T21:56:25.997Z,18.10
2018-04-07T21:58:53.562Z,19.57
2018-04-07T22:01:21.094Z,17.50
2018-04-07T22:03:48.732Z,17.20
2018-04-07T22:06:16.279Z,17.40
2018-04-07T22:08:43.818Z,16.60
2018-04-07T22:11:11.360Z,19.83
2018-04-07T22:13:38.925Z,17.20
2018-04-07T22:16:06.474Z,19.00
2018-04-07T22:18:34.123Z,17.77
2018-04-07T22:21:01.668Z,18.63
2018-04-07T22:23:29.217Z,18.27
2018-04-07T22:25:56.752Z,17.60
2018-04-07T22:28:24.365Z,16.30
2018-04-07T22:30:51.903Z,17.80
2018-04-07T22:33:19.536Z,17.13
2018-04-07T22:35:47.356Z,17.03
2018-04-07T22:38:14.921Z,16.87
2018-04-07T22:40:42.451Z,15.43
2018-04-07T22:43:09.993Z,15.10
2018-04-07T22:45:37.638Z,17.00
2018-04-07T22:48:05.952Z,14.47
2018-04-07T22:50:33.507Z,14.03
2018-04-07T22:53:01.470Z,14.73
2018-04-07T22:55:30.849Z,15.33
2018-04-07T22:57:58.451Z,15.60
2018-04-07T23:00:26.006Z,12.97
2018-04-07T23:02:53.583Z,13.30
2018-04-07T23:05:21.134Z,14.23
2018-04-07T23:07:48.674Z,14.90
2018-04-07T23:10:16.250Z,14.20
2018-04-07T23:12:43.803Z,14.90
2018-04-07T23:15:12.225Z,14.03
2018-04-07T23:17:39.754Z,14.63
2018-04-07T23:20:07.366Z,13.60
2018-04-07T23:22:35.698Z,14.10
2018-04-07T23:25:03.309Z,13.60
2018-04-07T23:27:30.811Z,13.53
2018-04-07T23:29:58.361Z,12.60
2018-04-07T23:32:26.662Z,14.23
2018-04-07T23:34:54.240Z,12.53
2018-04-07T23:37:23.375Z,13.10
2018-04-07T23:39:51.056Z,13.90
2018-04-07T23:42:18.592Z,14.33
2018-04-07T23:44:46.185Z,13.70
2018-04-07T23:47:14.909Z,12.00
2018-04-07T23:49:42.454Z,12.33
2018-04-07T23:52:10.002Z,13.10
2018-04-07T23:54:37.625Z,11.30
2018-04-07T23:57:05.606Z,12.00
2018-04-07T23:59:33.161Z,11.77
